createdAt,value
2019-03-18T00:00:45.593Z,99590.77
2019-03-18T00:03:50.031Z,99585.41
2019-03-18T00:06:54.794Z,99572.30
2019-03-18T00:09:59.097Z,99569.03
2019-03-18T00:13:03.407Z,99582.34
2019-03-18T00:16:07.708Z,99602.28
2019-03-18T00:19:11.973Z,99607.28
2019-03-18T00:22:16.455Z,99604.66
2019-03-18T00:25:20.986Z,99613.38
2019-03-18T00:28:25.394Z,99608.02
2019-03-18T00:31:29.827Z,99610.17
2019-03-18T00:34:34.107Z,99618.42
2019-03-18T00:37:38.507Z,99618.38
2019-03-18T00:40:42.890Z,99620.59
2019-03-18T00:43:47.198Z,99622.92
2019-03-18T00:46:52.075Z,99622.09
2019-03-18T00:49:56.507Z,99626.05
2019-03-18T00:53:00.904Z,99631.13
2019-03-18T00:56:05.382Z,99626.55
2019-03-18T00:59:09.798Z,99636.17
2019-03-18T01:02:14.117Z,99621.58
2019-03-18T01:05:18.480Z,99632.75
2019-03-18T01:08:23.170Z,99633.19
2019-03-18T01:11:27.592Z,99632.31
2019-03-18T01:14:31.888Z,99634.52
2019-03-18T01:17:36.300Z,99638.16
2019-03-18T01:25:41.534Z,99640.60
2019-03-18T01:28:45.896Z,99642.84
2019-03-18T01:31:50.194Z,99655.19
2019-03-18T01:34:54.476Z,99649.82
2019-03-18T01:37:58.905Z,99650.95
2019-03-18T01:41:03.195Z,99651.83
2019-03-18T01:44:07.457Z,99652.98
2019-03-18T01:47:11.748Z,99645.47
2019-03-18T01:50:16.110Z,99654.95
2019-03-18T01:53:21.832Z,99653.66
2019-03-18T01:56:27.321Z,99663.80
2019-03-18T01:59:31.752Z,99659.66
2019-03-18T02:02:36.169Z,99660.81
2019-03-18T02:05:40.442Z,99653.44
2019-03-18T02:08:44.827Z,99650.28
2019-03-18T02:11:49.128Z,99667.70
2019-03-18T02:14:53.401Z,99660.59
2019-03-18T02:17:57.669Z,99649.27
2019-03-18T02:21:01.941Z,99664.89
2019-03-18T02:24:06.807Z,99672.41
2019-03-18T02:27:11.122Z,99666.70
2019-03-18T02:30:15.920Z,99670.03
2019-03-18T02:33:20.394Z,99677.41
2019-03-18T02:36:24.666Z,99672.53
2019-03-18T02:39:28.936Z,99665.94
2019-03-18T02:42:33.218Z,99672.92
2019-03-18T02:45:37.487Z,99669.18
2019-03-18T02:48:41.780Z,99673.14
2019-03-18T02:51:47.535Z,99677.22
2019-03-18T02:54:51.831Z,99690.17
2019-03-18T02:57:56.141Z,99668.13
2019-03-18T03:01:00.403Z,99669.73
2019-03-18T03:04:04.697Z,99671.89
2019-03-18T03:07:09.179Z,99655.68
2019-03-18T03:10:13.897Z,99660.86
2019-03-18T03:13:18.157Z,99668.63
2019-03-18T03:16:27.149Z,99692.48
2019-03-18T03:19:28.557Z,99694.23
2019-03-18T03:22:32.911Z,99702.38
2019-03-18T03:25:37.201Z,99721.25
2019-03-18T03:28:41.448Z,99727.14
2019-03-18T03:31:45.850Z,99742.27
2019-03-18T03:34:51.986Z,99724.30
2019-03-18T03:37:57.934Z,99725.57
2019-03-18T03:41:03.985Z,99723.89
2019-03-18T03:44:08.283Z,99724.30
2019-03-18T03:47:14.982Z,99723.70
2019-03-18T03:50:19.262Z,99723.39
2019-03-18T03:53:23.538Z,99729.17
2019-03-18T03:56:27.915Z,99727.86
2019-03-18T03:59:34.901Z,99719.69
2019-03-18T04:02:39.613Z,99723.11
2019-03-18T04:05:45.783Z,99700.17
2019-03-18T04:08:50.076Z,99716.80
2019-03-18T04:11:54.595Z,99731.81
2019-03-18T04:14:58.856Z,99748.64
2019-03-18T04:18:03.124Z,99761.78
2019-03-18T04:21:07.500Z,99746.91
2019-03-18T04:24:11.859Z,99756.88
2019-03-18T04:27:18.011Z,99747.89
2019-03-18T04:30:22.276Z,99739.87
2019-03-18T04:33:28.452Z,99741.74
2019-03-18T04:36:32.745Z,99750.44
2019-03-18T04:39:37.018Z,99743.53
2019-03-18T04:42:44.129Z,99759.73
2019-03-18T04:45:51.616Z,99765.91
2019-03-18T04:48:58.495Z,99769.78
2019-03-18T04:52:02.735Z,99775.88
2019-03-18T04:55:07.218Z,99784.14
2019-03-18T04:58:11.492Z,99776.20
2019-03-18T05:01:15.916Z,99785.47
2019-03-18T05:04:21.289Z,99778.44
2019-03-18T05:07:25.564Z,99794.64
2019-03-18T05:10:29.857Z,99783.38
2019-03-18T05:13:37.053Z,99786.73
2019-03-18T05:16:42.915Z,99779.20
2019-03-18T05:19:48.651Z,99797.11
2019-03-18T05:22:54.717Z,99799.67
2019-03-18T05:25:58.993Z,99794.84
2019-03-18T05:29:03.259Z,99801.47
2019-03-18T05:32:07.534Z,99809.44
2019-03-18T05:35:15.127Z,99818.18
2019-03-18T05:38:19.433Z,99813.35
2019-03-18T05:41:23.730Z,99812.80
2019-03-18T05:44:28.003Z,99815.43
2019-03-18T05:47:39.368Z,99814.08
2019-03-18T05:50:39.907Z,99831.80
2019-03-18T05:53:44.187Z,99841.06
2019-03-18T05:56:48.503Z,99837.55
2019-03-18T05:59:52.788Z,99841.02
2019-03-18T06:02:57.067Z,99840.42
2019-03-18T06:06:01.365Z,99843.45
2019-03-18T06:09:07.062Z,99843.97
2019-03-18T06:12:11.369Z,99837.70
2019-03-18T06:15:15.646Z,99829.55
2019-03-18T06:18:20.031Z,99844.80
2019-03-18T06:21:24.309Z,99852.67
2019-03-18T06:24:28.577Z,99841.61
2019-03-18T06:27:34.065Z,99863.52
2019-03-18T06:30:38.342Z,99868.80
2019-03-18T06:33:42.643Z,99863.05
2019-03-18T06:36:46.937Z,99885.84
2019-03-18T06:39:51.260Z,99879.34
2019-03-18T06:42:55.614Z,99899.39
2019-03-18T06:45:59.890Z,99912.20
2019-03-18T06:49:04.170Z,99901.59
2019-03-18T06:52:08.472Z,99914.77
2019-03-18T06:55:12.953Z,99917.44
2019-03-18T06:58:17.240Z,99925.82
2019-03-18T07:01:21.532Z,99933.69
2019-03-18T07:04:25.808Z,99925.74
2019-03-18T07:07:30.089Z,99941.47
2019-03-18T07:10:34.358Z,99943.56
2019-03-18T07:13:40.070Z,99941.61
2019-03-18T07:16:44.585Z,99920.83
2019-03-18T07:19:51.835Z,99940.04
2019-03-18T07:22:56.375Z,99945.31
2019-03-18T07:26:00.687Z,99967.33
2019-03-18T07:29:04.968Z,99955.02
2019-03-18T07:32:09.355Z,99948.34
2019-03-18T07:35:13.834Z,99964.02
2019-03-18T07:38:18.124Z,99956.73
2019-03-18T07:41:22.479Z,99987.52
2019-03-18T07:44:26.733Z,99987.78
2019-03-18T07:47:31.009Z,99995.28
2019-03-18T07:50:35.291Z,99994.95
2019-03-18T07:53:43.541Z,100022.38
2019-03-18T07:56:50.629Z,100025.11
2019-03-18T07:59:56.096Z,100007.77
2019-03-18T08:03:03.295Z,100030.27
2019-03-18T08:06:06.687Z,100039.36
2019-03-18T08:09:11.114Z,100054.25
2019-03-18T08:12:15.572Z,100053.29
2019-03-18T08:15:21.403Z,100041.41
2019-03-18T08:18:25.679Z,100064.58
2019-03-18T08:21:29.968Z,100072.98
2019-03-18T08:24:34.276Z,100080.50
2019-03-18T08:27:38.669Z,100076.37
2019-03-18T08:30:43.038Z,100064.30
2019-03-18T08:33:48.802Z,100077.95
2019-03-18T08:36:55.265Z,100063.64
2019-03-18T08:40:02.203Z,100077.41
2019-03-18T08:43:06.520Z,100096.42
2019-03-18T08:46:10.836Z,100119.38
2019-03-18T08:49:15.257Z,100140.00
2019-03-18T08:52:19.532Z,100127.06
2019-03-18T08:55:23.839Z,100145.55
2019-03-18T08:58:28.114Z,100140.25
2019-03-18T09:01:32.405Z,100147.64
2019-03-18T09:04:36.726Z,100152.20
2019-03-18T09:07:41.012Z,100156.77
2019-03-18T09:10:45.303Z,100149.92
2019-03-18T09:13:49.712Z,100161.36
2019-03-18T09:16:54.006Z,100161.86
2019-03-18T09:20:00.259Z,100179.37
2019-03-18T09:23:04.813Z,100187.52
2019-03-18T09:26:09.155Z,100186.42
2019-03-18T09:29:13.622Z,100193.63
2019-03-18T09:32:17.902Z,100189.74
2019-03-18T09:35:22.290Z,100199.09
2019-03-18T09:38:26.692Z,100213.41
2019-03-18T09:41:34.052Z,100212.11
2019-03-18T09:44:40.167Z,100210.00
2019-03-18T09:47:45.817Z,100213.67
2019-03-18T09:50:52.894Z,100202.14
2019-03-18T09:53:58.294Z,100223.03
2019-03-18T09:57:02.601Z,100225.12
2019-03-18T10:00:07.228Z,100248.16
2019-03-18T10:03:11.554Z,100235.70
2019-03-18T10:06:16.940Z,100261.97
2019-03-18T10:09:21.344Z,100263.56
2019-03-18T10:12:25.848Z,100266.30
2019-03-18T10:15:30.148Z,100285.61
2019-03-18T10:18:34.420Z,100268.66
2019-03-18T10:21:38.728Z,100283.63
2019-03-18T10:24:43.004Z,100303.20
2019-03-18T10:27:47.309Z,100281.78
2019-03-18T10:30:52.732Z,100306.44
2019-03-18T10:33:57.012Z,100309.55
2019-03-18T10:37:01.447Z,100311.52
2019-03-18T10:40:06.638Z,100325.13
2019-03-18T10:43:10.916Z,100326.85
2019-03-18T10:46:15.366Z,100325.77
2019-03-18T10:49:19.651Z,100337.07
2019-03-18T10:52:24.262Z,100338.75
2019-03-18T10:55:28.552Z,100350.20
2019-03-18T10:58:32.811Z,100338.03
2019-03-18T11:01:37.199Z,100348.48
2019-03-18T11:04:41.563Z,100347.52
2019-03-18T11:07:46.050Z,100369.27
2019-03-18T11:10:50.341Z,100404.91
2019-03-18T11:13:58.746Z,100381.02
2019-03-18T11:17:03.040Z,100369.83
2019-03-18T11:20:08.525Z,100388.61
2019-03-18T11:23:12.808Z,100388.91
2019-03-18T11:26:18.201Z,100381.77
2019-03-18T11:29:22.484Z,100381.62
2019-03-18T11:32:26.795Z,100387.41
2019-03-18T11:35:32.200Z,100384.91
2019-03-18T11:38:36.498Z,100384.94
2019-03-18T11:41:40.789Z,100421.95
2019-03-18T11:44:45.067Z,100404.94
2019-03-18T11:47:49.393Z,100408.70
2019-03-18T11:50:55.495Z,100385.54
2019-03-18T11:53:59.947Z,100423.84
2019-03-18T11:57:04.430Z,100428.68
2019-03-18T12:00:11.932Z,100442.48
2019-03-18T12:03:18.328Z,100446.19
2019-03-18T12:06:22.210Z,100451.03
2019-03-18T12:09:26.540Z,100444.97
2019-03-18T12:12:30.871Z,100443.84
2019-03-18T12:15:36.572Z,100435.25
2019-03-18T12:18:41.036Z,100438.60
2019-03-18T12:21:45.371Z,100461.08
2019-03-18T12:24:49.742Z,100461.29
2019-03-18T12:27:56.179Z,100485.38
2019-03-18T12:31:16.746Z,100475.75
2019-03-18T12:34:36.950Z,100485.91
2019-03-18T12:37:57.210Z,100476.19
2019-03-18T12:41:04.204Z,100491.23
2019-03-18T12:44:10.174Z,100513.39
2019-03-18T12:47:18.167Z,100522.05
2019-03-18T12:50:38.630Z,100518.67
2019-03-18T12:53:29.676Z,100522.77
2019-03-18T12:56:34.373Z,100527.41
2019-03-18T12:59:39.855Z,100538.13
2019-03-18T13:02:47.086Z,100540.34
2019-03-18T13:05:51.595Z,100547.03
2019-03-18T13:08:55.882Z,100548.34
2019-03-18T13:12:00.326Z,100549.18
2019-03-18T13:15:05.791Z,100561.95
2019-03-18T13:18:10.444Z,100543.64
2019-03-18T13:21:14.777Z,100557.06
2019-03-18T13:24:19.342Z,100557.19
2019-03-18T13:27:24.061Z,100568.00
2019-03-18T13:30:29.670Z,100570.05
2019-03-18T13:33:34.183Z,100591.14
2019-03-18T13:36:38.542Z,100592.63
2019-03-18T13:39:43.089Z,100580.88
2019-03-18T13:42:47.371Z,100598.17
2019-03-18T13:45:55.687Z,100601.74
2019-03-18T13:48:57.893Z,100603.38
2019-03-18T13:52:03.309Z,100608.45
2019-03-18T13:55:07.754Z,100631.88
2019-03-18T13:58:12.060Z,100629.58
2019-03-18T14:01:16.352Z,100648.44
2019-03-18T14:04:20.639Z,100662.81
2019-03-18T14:07:24.952Z,100691.16
2019-03-18T14:10:29.253Z,100684.91
2019-03-18T14:13:33.663Z,100700.48
2019-03-18T14:16:37.998Z,100714.48
2019-03-18T14:19:42.323Z,100730.25
2019-03-18T14:22:48.441Z,100719.37
2019-03-18T14:25:52.930Z,100716.69
2019-03-18T14:28:57.331Z,100729.41
2019-03-18T14:32:01.795Z,100737.30
2019-03-18T14:35:08.110Z,100751.27
2019-03-18T14:38:12.407Z,100745.48
2019-03-18T14:41:17.888Z,100750.37
2019-03-18T14:44:24.741Z,100762.02
2019-03-18T14:47:29.040Z,100768.91
2019-03-18T14:50:33.438Z,100778.45
2019-03-18T14:53:37.723Z,100780.08
2019-03-18T14:56:42.107Z,100785.28
2019-03-18T14:59:46.424Z,100791.94
2019-03-18T15:02:50.893Z,100788.85
2019-03-18T15:05:55.151Z,100799.44
2019-03-18T15:09:02.362Z,100817.50
2019-03-18T15:12:06.625Z,100816.05
2019-03-18T15:15:14.154Z,100819.51
2019-03-18T15:18:18.454Z,100833.78
2019-03-18T15:21:22.769Z,100843.44
2019-03-18T15:24:27.043Z,100853.23
2019-03-18T15:27:31.331Z,100843.63
2019-03-18T15:30:37.136Z,100859.38
2019-03-18T15:33:41.405Z,100860.13
2019-03-18T15:36:45.686Z,100868.03
2019-03-18T15:39:50.002Z,100874.53
2019-03-18T15:42:54.311Z,100875.73
2019-03-18T15:45:58.760Z,100886.36
2019-03-18T15:49:03.045Z,100884.56
2019-03-18T15:52:11.395Z,100880.52
2019-03-18T15:55:13.925Z,100898.11
2019-03-18T15:58:19.225Z,100892.45
2019-03-18T16:01:25.593Z,100903.05
2019-03-18T16:04:29.887Z,100905.71
2019-03-18T16:07:34.228Z,100924.42
2019-03-18T16:10:38.530Z,100929.47
2019-03-18T16:13:42.835Z,100934.38
2019-03-18T16:16:47.297Z,100941.11
2019-03-18T16:19:51.602Z,100934.55
2019-03-18T16:22:55.890Z,100953.09
2019-03-18T16:26:00.271Z,100957.95
2019-03-18T16:29:05.689Z,100950.44
2019-03-18T16:32:11.516Z,100967.26
2019-03-18T16:35:16.503Z,100959.80
2019-03-18T16:38:20.875Z,100980.96
2019-03-18T16:41:25.295Z,100988.89
2019-03-18T16:44:29.579Z,100994.66
2019-03-18T16:47:33.875Z,100988.50
2019-03-18T16:50:40.647Z,101012.28
2019-03-18T16:53:44.975Z,101009.66
2019-03-18T16:56:52.066Z,101019.34
2019-03-18T16:59:56.428Z,101011.84
2019-03-18T17:03:09.671Z,101028.61
2019-03-18T17:06:13.964Z,101033.92
2019-03-18T17:09:18.269Z,101053.29
2019-03-18T17:12:22.556Z,101051.97
2019-03-18T17:15:26.857Z,101056.38
2019-03-18T17:18:31.142Z,101060.77
2019-03-18T17:21:37.330Z,101072.23
2019-03-18T17:24:41.670Z,101077.95
2019-03-18T17:27:46.094Z,101071.33
2019-03-18T17:30:50.424Z,101075.33
2019-03-18T17:33:54.732Z,101093.78
2019-03-18T17:36:59.136Z,101095.13
2019-03-18T17:40:03.443Z,101098.64
2019-03-18T17:43:09.132Z,101110.52
2019-03-18T17:46:13.413Z,101121.08
2019-03-18T17:49:17.803Z,101125.42
2019-03-18T17:52:22.149Z,101131.12
2019-03-18T17:55:26.431Z,101141.66
2019-03-18T17:58:30.748Z,101152.23
2019-03-18T18:01:36.459Z,101144.32
2019-03-18T18:04:40.961Z,101158.81
2019-03-18T18:07:45.252Z,101150.45
2019-03-18T18:10:49.545Z,101162.30
2019-03-18T18:13:53.913Z,101177.67
2019-03-18T18:16:58.187Z,101176.37
2019-03-18T18:20:02.486Z,101177.64
2019-03-18T18:23:14.381Z,101186.02
2019-03-18T18:26:14.767Z,101201.82
2019-03-18T18:29:20.872Z,101210.14
2019-03-18T18:32:29.113Z,101212.79
2019-03-18T18:35:33.407Z,101220.67
2019-03-18T18:38:37.788Z,101229.03
2019-03-18T18:41:42.227Z,101231.66
2019-03-18T18:44:46.600Z,101238.25
2019-03-18T18:47:51.040Z,101249.66
2019-03-18T18:50:55.440Z,101257.17
2019-03-18T18:53:59.748Z,101258.88
2019-03-18T18:57:04.305Z,101270.31
2019-03-18T19:00:10.954Z,101269.39
2019-03-18T19:03:15.349Z,101268.56
2019-03-18T19:06:19.916Z,101278.67
2019-03-18T19:09:26.304Z,101290.08
2019-03-18T19:12:32.103Z,101293.17
2019-03-18T19:15:37.874Z,101290.95
2019-03-18T19:18:42.321Z,101296.72
2019-03-18T19:21:46.691Z,101309.44
2019-03-18T19:24:51.107Z,101308.55
2019-03-18T19:27:55.734Z,101314.71
2019-03-18T19:31:00.055Z,101322.61
2019-03-18T19:34:06.222Z,101327.05
2019-03-18T19:37:11.788Z,101327.94
2019-03-18T19:40:17.501Z,101333.23
2019-03-18T19:43:22.129Z,101341.15
2019-03-18T19:46:27.029Z,101346.42
2019-03-18T19:49:31.616Z,101349.92
2019-03-18T19:52:36.411Z,101348.63
2019-03-18T19:55:40.958Z,101338.05
2019-03-18T19:58:45.645Z,101366.14
2019-03-18T20:01:51.353Z,101365.25
2019-03-18T20:04:55.855Z,101361.69
2019-03-18T20:08:00.575Z,101369.14
2019-03-18T20:11:06.243Z,101367.36
2019-03-18T20:14:11.923Z,101382.28
2019-03-18T20:17:16.746Z,101388.83
2019-03-18T20:20:21.397Z,101391.43
2019-03-18T20:23:27.748Z,101402.89
2019-03-18T20:26:32.569Z,101409.83
2019-03-18T20:29:37.280Z,101403.63
2019-03-18T20:32:42.742Z,101411.91
2019-03-18T20:35:47.357Z,101411.02
2019-03-18T20:38:51.894Z,101412.72
2019-03-18T20:41:56.590Z,101431.20
2019-03-18T20:45:01.423Z,101428.94
2019-03-18T20:48:05.873Z,101441.26
2019-03-18T20:51:10.501Z,101447.80
2019-03-18T20:54:14.867Z,101449.95
2019-03-18T20:57:19.199Z,101450.80
2019-03-18T21:00:23.540Z,101450.33
2019-03-18T21:03:30.935Z,101463.02
2019-03-18T21:06:37.045Z,101458.59
2019-03-18T21:09:41.443Z,101470.48
2019-03-18T21:12:49.730Z,101477.91
2019-03-18T21:15:54.226Z,101473.06
2019-03-18T21:19:01.030Z,101478.28
2019-03-18T21:22:05.326Z,101487.96
2019-03-18T21:25:10.585Z,101493.65
2019-03-18T21:28:14.906Z,101503.30
2019-03-18T21:31:19.229Z,101502.82
2019-03-18T21:34:23.585Z,101506.77
2019-03-18T21:37:27.968Z,101510.41
2019-03-18T21:40:32.281Z,101516.80
2019-03-18T21:43:36.599Z,101519.32
2019-03-18T21:46:43.258Z,101518.47
2019-03-18T21:49:46.942Z,101522.78
2019-03-18T21:52:52.470Z,101527.14
2019-03-18T21:55:56.750Z,101535.02
2019-03-18T21:59:02.006Z,101534.19
2019-03-18T22:02:07.683Z,101541.61
2019-03-18T22:05:12.171Z,101545.56
2019-03-18T22:08:16.474Z,101557.41
2019-03-18T22:11:20.768Z,101566.13
2019-03-18T22:14:25.205Z,101570.98
2019-03-18T22:17:29.593Z,101574.00
2019-03-18T22:20:33.922Z,101568.27
2019-03-18T22:23:40.367Z,101577.41
2019-03-18T22:26:47.517Z,101578.66
2019-03-18T22:29:51.797Z,101572.05
2019-03-18T22:32:56.217Z,101575.19
2019-03-18T22:36:00.545Z,101576.78
2019-03-18T22:39:09.041Z,101578.99
2019-03-18T22:42:13.310Z,101576.34
2019-03-18T22:45:17.652Z,101574.06
2019-03-18T22:48:21.944Z,101580.61
2019-03-18T22:51:26.245Z,101588.88
2019-03-18T22:54:30.611Z,101595.50
2019-03-18T22:57:35.454Z,101602.96
2019-03-18T23:00:47.856Z,101601.19
2019-03-18T23:03:53.272Z,101605.97
2019-03-18T23:06:58.425Z,101611.69
2019-03-18T23:10:03.689Z,101612.11
2019-03-18T23:13:09.019Z,101602.44
2019-03-18T23:16:15.122Z,101609.91
2019-03-18T23:19:21.127Z,101608.17
2019-03-18T23:22:26.331Z,101617.37
2019-03-18T23:25:31.656Z,101627.39
2019-03-18T23:28:36.861Z,101632.58
2019-03-18T23:31:41.837Z,101642.24
2019-03-18T23:34:49.404Z,101644.02
2019-03-18T23:37:56.476Z,101645.80
2019-03-18T23:41:03.708Z,101649.25
2019-03-18T23:44:08.100Z,101645.30
2019-03-18T23:47:12.412Z,101645.62
2019-03-18T23:50:16.938Z,101658.78
2019-03-18T23:53:21.427Z,101658.03
2019-03-18T23:56:25.656Z,101655.67
2019-03-18T23:59:30.224Z,101662.12
